Terminal Aerodrome Forecast
Issued by NWS Quad Cities IA IL

Home | Current Version | Previous Version | Text Only | Print | Product List | Glossary On
Versions: 1 2 3 4 5 6 7 8 9 10 11 12 13 14 15 16 17 18 19 20
000
FTUS43 KDVN 251700 RRA
TAFMLI
TAF
KMLI 251759Z 2518/2618 10008KT P6SM SCT090
     FM252100 11012KT P6SM VCTS BKN040CB
     FM260000 16007KT P6SM SCT035 SCT120
     FM260300 22006KT 5SM BR SCT060
     FM260600 33006KT P6SM VCSH SCT025 BKN060
     FM261400 01006KT 5SM -SHRA BR VCTS SCT015 BKN030CB=

USA.gov is the U.S. government's official web portal to all federal, state and local government web resources and services.